Time;durP1;ratioP1;P1;durP2;ratioP2;P2;SDS_P1;SDS_P2;PMS_P1;PMS_P2;Temp;Humidity;BMP_temperature;BMP_pressure;BME280_temperature;BME280_humidity;BME280_pressure;Samples;Min_cycle;Max_cycle;Signal;HPM_P1;HPM_P2
2022/09/10 13:32:15;;;;;;;12.30;4.72;;;;;;;26.57;63.00;101208.38;5068561;27;20888;-39
2022/09/10 13:35:05;;;;;;;11.68;4.57;;;;;;;26.53;63.11;101206.19;5071243;28;20032;-39
2022/09/10 13:37:43;;;;;;;11.80;4.20;;;;;;;26.52;62.72;101205.31;5086376;27;20092;-39
2022/09/10 13:40:11;;;;;;;9.50;4.25;;;;;;;26.55;62.52;101195.97;5070490;28;20165;-40
2022/09/10 13:43:04;;;;;;;9.77;3.55;;;;;;;26.53;62.55;101208.88;5084790;27;20058;-41
2022/09/10 13:45:39;;;;;;;8.93;3.58;;;;;;;26.51;62.53;101209.06;5070349;28;21697;-41
2022/09/10 13:48:13;;;;;;;10.30;3.88;;;;;;;26.53;62.58;101206.19;5069569;28;20066;-46
2022/09/10 13:51:06;;;;;;;10.27;3.95;;;;;;;26.54;62.31;101202.44;5071551;28;21346;-42
2022/09/10 13:53:34;;;;;;;9.75;3.50;;;;;;;26.55;62.23;101210.44;5071206;28;20027;-41
2022/09/10 13:56:12;;;;;;;6.55;3.05;;;;;;;26.56;62.08;101216.69;5071466;28;20058;-42
2022/09/10 13:58:49;;;;;;;7.38;3.10;;;;;;;26.56;61.84;101224.84;5065255;28;20039;-42
2022/09/10 14:01:14;;;;;;;7.32;3.00;;;;;;;26.57;61.77;101224.66;5075330;28;20367;-46
2022/09/10 14:03:40;;;;;;;6.80;2.95;;;;;;;26.58;61.97;101228.25;5073769;28;20544;-42
2022/09/10 14:06:17;;;;;;;5.15;2.75;;;;;;;26.59;61.82;101219.94;5074914;28;20598;-42
2022/09/10 14:08:53;;;;;;;6.93;3.05;;;;;;;26.63;61.73;101226.72;5073042;28;20822;-39
2022/09/10 14:11:23;;;;;;;6.07;2.80;;;;;;;26.65;61.69;101226.56;5076090;28;20070;-43
2022/09/10 14:14:04;;;;;;;5.85;2.70;;;;;;;26.67;61.55;101240.84;5074086;28;20064;-42
2022/09/10 14:16:39;;;;;;;8.43;2.67;;;;;;;26.69;61.65;101235.22;5073923;28;20057;-42
2022/09/10 14:19:27;;;;;;;6.50;2.78;;;;;;;26.70;61.39;101239.66;5068640;28;20034;-42
2022/09/10 14:21:56;;;;;;;9.25;2.92;;;;;;;26.71;61.61;101241.38;5070045;28;20766;-43
2022/09/10 14:24:44;;;;;;;6.53;2.50;;;;;;;26.69;61.66;101246.97;5068389;28;20171;-43
2022/09/10 14:27:27;;;;;;;9.48;2.90;;;;;;;26.70;61.44;101266.81;5067659;28;20226;-42
2022/09/10 14:29:55;;;;;;;5.53;2.35;;;;;;;26.69;61.49;101248.81;5065967;28;20047;-40
2022/09/10 14:32:35;;;;;;;6.93;2.42;;;;;;;26.69;61.23;101254.25;5068294;28;20829;-41
2022/09/10 14:35:38;;;;;;;5.67;2.50;;;;;;;26.69;61.21;101257.84;5049655;28;20129;-40
2022/09/10 14:38:33;;;;;;;6.75;2.53;;;;;;;26.69;61.21;101263.28;5070620;28;20335;-43
2022/09/10 14:41:15;;;;;;;5.38;2.30;;;;;;;26.67;61.41;101257.97;5072641;28;21740;-41
2022/09/10 14:43:41;;;;;;;5.38;2.25;;;;;;;26.67;61.02;101260.69;5058536;28;20043;-43
2022/09/10 14:46:12;;;;;;;4.30;2.22;;;;;;;26.67;61.27;101257.13;5058871;28;20051;-43
2022/09/10 14:48:40;;;;;;;5.32;2.20;;;;;;;26.67;61.63;101259.84;5058239;28;20490;-40
2022/09/10 14:51:21;;;;;;;4.18;2.00;;;;;;;26.68;61.43;101261.56;5058892;28;20082;-41
2022/09/10 14:53:55;;;;;;;4.25;2.10;;;;;;;26.70;61.01;101269.53;5059051;28;20039;-42
2022/09/10 14:56:23;;;;;;;4.55;2.10;;;;;;;26.69;60.84;101268.69;5055230;28;20040;-41
2022/09/10 14:58:58;;;;;;;5.85;2.40;;;;;;;26.70;61.18;101264.09;5058814;28;20043;-41
2022/09/10 15:01:24;;;;;;;4.32;2.10;;;;;;;26.71;61.52;101273.97;5058901;28;20029;-42
2022/09/10 15:03:49;;;;;;;6.72;2.40;;;;;;;26.72;61.65;101284.66;5060105;28;20070;-42
2022/09/10 15:06:15;;;;;;;4.63;2.10;;;;;;;26.73;61.39;101285.56;5058527;28;20546;-41
2022/09/10 15:08:40;;;;;;;7.03;2.60;;;;;;;26.74;61.39;101285.38;5037005;28;20439;-40
2022/09/10 15:11:14;;;;;;;5.82;2.42;;;;;;;26.74;61.24;101281.81;5058994;28;20081;-40
2022/09/10 15:13:43;;;;;;;8.43;2.63;;;;;;;26.73;61.19;101283.69;5058672;28;20031;-40
2022/09/10 15:16:08;;;;;;;12.75;3.83;;;;;;;26.76;61.09;101290.66;5040007;28;20054;-41
2022/09/10 15:18:34;;;;;;;17.60;5.30;;;;;;;26.75;61.15;101307.97;5058079;28;20040;-40
2022/09/10 15:21:05;;;;;;;16.13;4.18;;;;;;;26.75;60.79;101303.41;5039550;28;20088;-42
2022/09/10 15:23:31;;;;;;;26.30;6.95;;;;;;;26.74;60.84;101306.25;5058743;28;20040;-41
2022/09/10 15:26:00;;;;;;;34.22;7.45;;;;;;;26.72;60.72;101311.81;5059337;28;20040;-41
2022/09/10 15:28:25;;;;;;;24.58;6.55;;;;;;;26.72;60.63;101303.69;5059095;28;20465;-43
2022/09/10 15:30:51;;;;;;;21.92;6.40;;;;;;;26.71;60.67;101307.41;5057648;28;20047;-43
2022/09/10 15:33:17;;;;;;;22.23;5.80;;;;;;;26.71;60.71;101303.84;5072794;27;20047;-41
2022/09/10 15:35:42;;;;;;;21.77;5.70;;;;;;;26.72;60.75;101314.53;5038719;28;20055;-43
2022/09/10 15:38:15;;;;;;;19.65;5.40;;;;;;;26.72;60.61;101306.41;5056976;28;20866;-43
2022/09/10 15:40:41;;;;;;;16.33;5.25;;;;;;;26.74;60.72;101325.28;5059159;28;20036;-43
2022/09/10 15:43:06;;;;;;;18.13;5.35;;;;;;;26.74;60.45;101331.56;5072260;27;20072;-45
2022/09/10 15:45:33;;;;;;;13.13;4.70;;;;;;;26.74;59.97;101308.97;5070340;27;20206;-43
2022/09/10 15:47:59;;;;;;;15.85;4.40;;;;;;;26.74;60.21;101308.97;5058219;28;20089;-41
2022/09/10 15:50:24;;;;;;;12.07;4.20;;;;;;;26.75;60.31;101319.69;5054780;28;20180;-42
2022/09/10 15:52:50;;;;;;;11.90;4.13;;;;;;;26.75;60.16;101324.25;5054974;28;20032;-42
2022/09/10 15:55:18;;;;;;;15.45;4.70;;;;;;;26.75;60.24;101318.81;5055735;28;21557;-40
2022/09/10 15:57:44;;;;;;;12.63;4.25;;;;;;;26.75;60.48;101321.53;5056167;28;20160;-44
2022/09/10 16:00:11;;;;;;;13.43;4.60;;;;;;;26.75;59.95;101319.69;5071034;27;21390;-42
2022/09/10 16:02:36;;;;;;;10.75;3.90;;;;;;;26.75;59.87;101325.13;5056470;28;20365;-41
2022/09/10 16:05:02;;;;;;;10.02;3.97;;;;;;;26.75;60.12;101337.84;5055833;28;20094;-41
2022/09/10 16:07:28;;;;;;;8.35;3.65;;;;;;;26.75;59.85;101325.13;5055771;28;20055;-40
2022/09/10 16:09:54;;;;;;;8.95;3.33;;;;;;;26.77;60.03;101333.09;5056928;28;20061;-42
2022/09/10 16:12:19;;;;;;;10.48;3.53;;;;;;;26.75;59.44;101330.56;5040006;28;20446;-44
2022/09/10 16:14:45;;;;;;;8.23;3.60;;;;;;;26.76;59.47;101334.13;5056274;28;20047;-40
2022/09/10 16:17:11;;;;;;;8.57;3.20;;;;;;;26.76;59.57;101336.84;5055348;28;20174;-41
2022/09/10 16:19:37;;;;;;;8.07;3.25;;;;;;;26.77;59.92;101338.53;5056059;28;20747;-41
2022/09/10 16:22:05;;;;;;;7.75;2.97;;;;;;;26.77;59.58;101343.97;5055478;28;20033;-41
2022/09/10 16:24:31;;;;;;;6.63;3.10;;;;;;;26.76;58.94;101345.00;5055788;28;20055;-41
2022/09/10 16:26:56;;;;;;;7.32;3.30;;;;;;;26.76;59.42;101353.13;5055895;28;20706;-42
2022/09/10 16:29:22;;;;;;;6.50;2.85;;;;;;;26.76;59.08;101364.00;5056131;28;20328;-43
2022/09/10 16:31:48;;;;;;;8.27;2.85;;;;;;;26.75;59.36;101362.28;5055109;28;20122;-41
2022/09/10 16:34:17;;;;;;;6.93;2.90;;;;;;;26.74;59.70;101360.59;5057872;28;20036;-40
2022/09/10 16:36:43;;;;;;;6.32;2.70;;;;;;;26.74;59.51;101358.75;5057611;28;20036;-42
2022/09/10 16:39:11;;;;;;;6.53;3.03;;;;;;;26.74;59.13;101361.47;5041704;28;20313;-40
2022/09/10 16:41:42;;;;;;;5.93;2.60;;;;;;;26.74;59.07;101369.59;5045426;28;20024;-41
2022/09/10 16:44:09;;;;;;;4.72;2.53;;;;;;;26.73;59.05;101365.19;5056003;28;20028;-41
2022/09/10 16:46:37;;;;;;;6.07;2.80;;;;;;;26.72;59.07;101374.31;5055602;28;20051;-42
2022/09/10 16:49:02;;;;;;;5.93;2.75;;;;;;;26.72;58.88;101373.47;5055379;28;20025;-43
2022/09/10 16:51:28;;;;;;;5.95;2.70;;;;;;;26.71;59.35;101375.31;5055187;28;20168;-42
2022/09/10 16:54:01;;;;;;;5.78;2.85;;;;;;;26.70;58.96;101378.19;5055030;28;20031;-44
2022/09/10 16:56:30;;;;;;;5.93;2.65;;;;;;;26.70;58.65;101391.78;5054394;28;20492;-42
2022/09/10 16:58:56;;;;;;;7.38;2.80;;;;;;;26.70;58.94;101383.63;5054791;28;20024;-41
2022/09/10 17:01:21;;;;;;;6.40;2.60;;;;;;;26.67;59.43;101393.78;5054777;28;20077;-42
2022/09/10 17:03:51;;;;;;;5.28;2.40;;;;;;;26.66;58.94;101389.41;5070730;27;20032;-42
2022/09/10 17:06:23;;;;;;;5.93;2.60;;;;;;;26.66;58.98;101389.41;5050284;28;20146;-43
2022/09/10 17:08:49;;;;;;;5.53;2.50;;;;;;;26.65;58.65;101395.84;5055810;28;20089;-42
2022/09/10 17:11:16;;;;;;;6.68;2.47;;;;;;;26.65;59.07;101384.09;5055223;28;20073;-42
2022/09/10 17:13:42;;;;;;;4.43;2.30;;;;;;;26.65;59.10;101398.56;5054381;28;20488;-41
2022/09/10 17:16:25;;;;;;;4.43;2.40;;;;;;;26.64;58.88;101396.84;5054840;28;20253;-42
2022/09/10 17:18:58;;;;;;;3.92;2.30;;;;;;;26.65;58.88;101395.84;5054446;28;20036;-45
2022/09/10 17:21:30;;;;;;;4.05;2.20;;;;;;;26.64;59.07;101393.28;5054748;28;20021;-41
2022/09/10 17:23:56;;;;;;;5.70;2.35;;;;;;;26.64;58.54;101407.72;5036144;28;20036;-41
2022/09/10 17:26:23;;;;;;;4.03;2.25;;;;;;;26.63;58.67;101402.44;5053166;28;20036;-43
2022/09/10 17:29:05;;;;;;;4.68;2.30;;;;;;;26.61;58.89;101399.91;5055163;28;20090;-41
2022/09/10 17:31:31;;;;;;;6.03;2.42;;;;;;;26.60;59.11;101409.06;5054624;28;20097;-43
2022/09/10 17:33:58;;;;;;;4.28;2.20;;;;;;;26.59;58.92;101404.63;5054528;28;20047;-40
2022/09/10 17:36:24;;;;;;;4.15;2.40;;;;;;;26.59;58.70;101412.78;5055489;28;20080;-40
2022/09/10 17:38:52;;;;;;;3.45;2.10;;;;;;;26.58;59.03;101411.06;5055747;28;20038;-40
2022/09/10 17:41:18;;;;;;;5.15;2.17;;;;;;;26.58;58.78;101415.66;5055656;28;20094;-41
2022/09/10 17:43:44;;;;;;;4.20;2.03;;;;;;;26.56;58.82;101415.81;5055567;28;20031;-42
2022/09/10 17:46:13;;;;;;;4.82;2.13;;;;;;;26.57;59.29;101419.38;5054555;28;20284;-42
2022/09/10 17:48:40;;;;;;;3.28;2.05;;;;;;;26.54;59.20;101426.00;5055348;28;20036;-41
2022/09/10 17:51:05;;;;;;;4.18;2.45;;;;;;;26.55;59.05;101427.69;5054543;28;20036;-41
2022/09/10 17:53:32;;;;;;;3.72;2.30;;;;;;;26.53;58.74;101427.00;5053975;28;20378;-41
2022/09/10 17:56:05;;;;;;;3.15;1.90;;;;;;;26.54;58.95;101433.28;5055853;28;20154;-40
2022/09/10 17:58:34;;;;;;;2.90;2.20;;;;;;;26.53;59.04;101437.03;5055659;28;20204;-41
2022/09/10 18:01:02;;;;;;;4.82;2.28;;;;;;;26.52;58.90;101441.56;5037983;28;20121;-41
2022/09/10 18:03:28;;;;;;;4.32;2.28;;;;;;;26.51;58.63;101439.91;5056162;28;20035;-45
2022/09/10 18:05:53;;;;;;;3.97;2.25;;;;;;;26.50;58.97;101446.34;5055785;28;20299;-42
2022/09/10 18:08:19;;;;;;;3.60;2.00;;;;;;;26.48;58.93;101445.63;5053598;28;20067;-41
2022/09/10 18:10:44;;;;;;;2.72;2.13;;;;;;;26.46;58.77;101442.25;5055164;28;20078;-42
2022/09/10 18:13:10;;;;;;;3.63;2.00;;;;;;;26.47;58.84;101460.22;5055486;28;20126;-40
2022/09/10 18:15:41;;;;;;;3.38;2.10;;;;;;;26.46;58.95;101458.53;5071044;28;20052;-41
2022/09/10 18:18:08;;;;;;;3.28;2.00;;;;;;;26.45;59.20;101468.53;5058590;28;20161;-41
2022/09/10 18:20:33;;;;;;;2.45;2.03;;;;;;;26.45;58.96;101471.25;5058530;28;20074;-41
2022/09/10 18:22:59;;;;;;;3.30;2.10;;;;;;;26.44;58.82;101474.13;5059930;28;21166;-41
2022/09/10 18:25:29;;;;;;;3.17;2.00;;;;;;;26.43;59.01;101483.28;5059434;28;20663;-41
2022/09/10 18:27:55;;;;;;;4.47;2.10;;;;;;;26.43;58.83;101488.69;5050977;28;20028;-39
2022/09/10 18:30:20;;;;;;;4.20;2.28;;;;;;;26.41;58.44;101488.88;5040094;28;20045;-41
2022/09/10 18:32:46;;;;;;;3.92;1.95;;;;;;;26.40;58.83;101489.88;5060243;28;20024;-41
2022/09/10 18:35:12;;;;;;;3.58;2.10;;;;;;;26.39;58.67;101496.31;5058604;28;20059;-42
2022/09/10 18:37:38;;;;;;;2.88;2.10;;;;;;;26.39;58.86;101500.91;5039972;28;20033;-41
2022/09/10 18:40:05;;;;;;;2.63;2.03;;;;;;;26.37;58.80;101501.06;5059156;28;20037;-41
2022/09/10 18:42:31;;;;;;;3.92;2.05;;;;;;;26.37;58.84;101509.22;5056667;28;20033;-41
2022/09/10 18:44:57;;;;;;;4.93;2.40;;;;;;;26.36;58.93;101498.47;5058205;28;20037;-40
2022/09/10 18:47:22;;;;;;;3.22;1.90;;;;;;;26.36;58.74;101512.06;5059492;28;20043;-41
2022/09/10 18:49:48;;;;;;;2.90;2.00;;;;;;;26.35;58.83;101510.38;5040352;28;20079;-41
2022/09/10 18:52:13;;;;;;;2.95;1.88;;;;;;;26.33;59.02;101519.53;5059085;28;20123;-43
2022/09/10 18:54:40;;;;;;;4.43;1.90;;;;;;;26.33;59.01;101526.78;5038985;28;20074;-41
2022/09/10 18:57:05;;;;;;;4.85;2.10;;;;;;;26.31;58.97;101524.25;5038869;28;20162;-41
2022/09/10 18:59:31;;;;;;;4.05;2.20;;;;;;;26.30;58.91;101525.25;5057396;28;20039;-41
2022/09/10 19:01:56;;;;;;;3.40;1.98;;;;;;;26.30;58.77;101538.81;5055038;28;20051;-41
2022/09/10 19:04:27;;;;;;;3.03;2.10;;;;;;;26.29;58.97;101539.84;5058360;28;20047;-40
2022/09/10 19:06:53;;;;;;;6.30;2.00;;;;;;;26.29;59.22;101539.84;5058581;28;20441;-41
2022/09/10 19:09:25;;;;;;;2.40;1.95;;;;;;;26.27;58.48;101536.44;5057963;28;21444;-41
2022/09/10 19:11:52;;;;;;;3.08;1.92;;;;;;;26.28;58.85;101542.69;5056606;28;20031;-41
2022/09/10 19:14:33;;;;;;;3.38;2.13;;;;;;;26.25;59.00;101541.16;5039027;28;20029;-41
2022/09/10 19:16:59;;;;;;;3.92;2.10;;;;;;;26.25;58.97;101549.28;5057416;28;20166;-40
2022/09/10 19:19:27;;;;;;;5.38;2.05;;;;;;;26.25;58.63;101549.28;5058022;28;20836;-40
2022/09/10 19:21:55;;;;;;;3.15;2.13;;;;;;;26.24;59.01;101547.59;5056414;28;20411;-41
2022/09/10 19:24:25;;;;;;;3.42;2.22;;;;;;;26.23;58.90;101550.47;5057496;28;20027;-40
2022/09/10 19:26:51;;;;;;;3.20;2.00;;;;;;;26.23;59.02;101545.03;5056626;28;20049;-41
2022/09/10 19:29:17;;;;;;;3.03;2.30;;;;;;;26.21;58.89;101553.34;5057615;28;20036;-40
2022/09/10 19:31:44;;;;;;;4.70;2.35;;;;;;;26.21;58.78;101560.63;5056980;28;20641;-41
2022/09/10 19:34:11;;;;;;;4.32;2.40;;;;;;;26.20;59.24;101557.03;5054916;28;20024;-41
2022/09/10 19:36:36;;;;;;;3.20;2.13;;;;;;;26.19;58.96;101554.50;5054707;28;20044;-40
2022/09/10 19:39:07;;;;;;;3.83;2.15;;;;;;;26.19;59.02;101555.38;5057368;28;20047;-40
2022/09/10 19:41:34;;;;;;;3.42;2.22;;;;;;;26.17;59.12;101569.06;5038180;28;20031;-42
2022/09/10 19:44:01;;;;;;;6.07;2.28;;;;;;;26.17;58.95;101574.50;5054976;28;20028;-41
2022/09/10 19:46:29;;;;;;;3.30;2.22;;;;;;;26.16;58.98;101570.09;5054985;28;20431;-40
2022/09/10 19:48:58;;;;;;;2.90;2.20;;;;;;;26.16;59.05;101575.53;5036588;28;20051;-41
2022/09/10 19:51:28;;;;;;;4.32;2.20;;;;;;;26.15;58.98;101579.25;5055087;28;20032;-41
2022/09/10 19:53:55;;;;;;;3.53;2.30;;;;;;;26.13;58.93;101581.25;5054360;28;20500;-41
2022/09/10 19:56:22;;;;;;;2.75;2.20;;;;;;;26.14;59.12;101576.69;5040062;28;20028;-42
2022/09/10 19:58:54;;;;;;;3.42;2.30;;;;;;;26.12;59.03;101576.81;5056425;28;20131;-40
2022/09/10 20:01:30;;;;;;;3.63;2.30;;;;;;;26.09;59.12;101582.56;5056399;28;20374;-40
2022/09/10 20:03:56;;;;;;;5.15;2.42;;;;;;;26.09;59.13;101576.25;5056058;28;20128;-40
2022/09/10 20:06:24;;;;;;;3.30;2.20;;;;;;;26.08;59.14;101580.84;5056195;28;20043;-40
2022/09/10 20:08:50;;;;;;;3.53;2.40;;;;;;;26.08;59.27;101580.00;5040587;28;21174;-41
2022/09/10 20:11:24;;;;;;;4.43;2.53;;;;;;;26.06;59.17;101580.13;5047609;28;20028;-41
2022/09/10 20:13:55;;;;;;;3.53;2.20;;;;;;;26.06;58.90;101579.31;5056068;28;20098;-42
2022/09/10 20:16:22;;;;;;;4.90;2.30;;;;;;;26.04;59.36;101589.41;5057276;28;20566;-41
2022/09/10 20:18:48;;;;;;;3.28;2.33;;;;;;;26.02;59.04;101595.00;5056563;28;20536;-40
2022/09/10 20:21:18;;;;;;;138.48;8.05;;;;;;;26.01;59.57;101594.16;5055077;28;20028;-44
2022/09/10 20:23:46;;;;;;;2.78;2.15;;;;;;;26.06;59.22;101591.00;5033862;28;20040;-41
2022/09/10 20:26:13;;;;;;;4.50;2.20;;;;;;;26.10;59.28;101589.72;5051063;28;20074;-42
2022/09/10 20:28:39;;;;;;;4.15;2.28;;;;;;;26.13;59.13;101594.81;5048526;28;20128;-43
2022/09/10 20:31:09;;;;;;;10.85;2.70;;;;;;;26.15;58.90;101592.81;5048199;28;20086;-43
2022/09/10 20:33:41;;;;;;;5.43;2.30;;;;;;;26.16;58.77;101597.25;5048510;28;20404;-43
2022/09/10 20:36:10;;;;;;;5.45;2.30;;;;;;;26.19;58.93;101606.06;5050302;28;20040;-42
2022/09/10 20:38:37;;;;;;;4.05;2.33;;;;;;;26.19;58.70;101606.06;5050678;28;20114;-41
2022/09/10 20:41:02;;;;;;;3.65;2.40;;;;;;;26.19;58.72;101615.09;5051094;28;20494;-44
2022/09/10 20:43:28;;;;;;;3.95;2.40;;;;;;;26.22;58.77;101617.47;5050457;28;20037;-46
2022/09/10 20:45:55;;;;;;;5.95;2.58;;;;;;;26.22;58.92;101617.47;5050376;28;20032;-44
2022/09/10 20:48:22;;;;;;;6.00;2.33;;;;;;;26.24;58.78;101629.06;5050921;28;20162;-42
2022/09/10 20:50:55;;;;;;;5.38;2.50;;;;;;;26.24;58.83;101626.34;5048586;28;20037;-41
2022/09/10 20:53:21;;;;;;;3.90;2.42;;;;;;;26.25;58.63;101627.19;5035098;28;20036;-41
2022/09/10 20:55:47;;;;;;;5.60;2.45;;;;;;;26.24;58.49;101625.47;5051538;28;20121;-41
2022/09/10 20:58:13;;;;;;;5.15;2.30;;;;;;;26.25;58.78;101629.91;5051616;28;20268;-43
2022/09/10 21:00:41;;;;;;;147.20;7.38;;;;;;;26.25;58.64;101629.91;5052637;28;20036;-42
2022/09/10 21:03:11;;;;;;;26.73;3.00;;;;;;;26.26;58.88;101631.59;5054303;28;20039;-44
2022/09/10 21:05:37;;;;;;;7.15;2.38;;;;;;;26.24;58.99;101623.63;5037043;28;20036;-46
2022/09/10 21:08:03;;;;;;;4.82;2.70;;;;;;;26.20;58.68;101624.91;5055480;28;20806;-44
2022/09/10 21:10:29;;;;;;;5.70;2.60;;;;;;;26.17;58.75;101627.94;5056776;28;20093;-44
2022/09/10 21:12:54;;;;;;;7.55;2.60;;;;;;;26.13;58.92;101618.41;5055024;28;20648;-45
2022/09/10 21:15:19;;;;;;;8.25;2.70;;;;;;;26.11;59.29;101621.28;5055577;28;20229;-44
2022/09/10 21:17:48;;;;;;;4.15;2.40;;;;;;;26.10;58.99;101632.25;5050526;28;20028;-42
2022/09/10 21:20:14;;;;;;;6.15;2.67;;;;;;;26.06;59.05;101626.28;5056892;28;21523;-43
2022/09/10 21:22:40;;;;;;;5.45;2.40;;;;;;;26.04;58.81;101613.84;5056894;28;20139;-44
2022/09/10 21:25:09;;;;;;;5.35;2.20;;;;;;;26.01;59.00;101626.72;5057041;28;20032;-43
2022/09/10 21:27:35;;;;;;;3.97;2.47;;;;;;;26.00;58.71;101629.59;5055877;28;20489;-44
2022/09/10 21:30:02;;;;;;;4.50;2.70;;;;;;;25.99;59.22;101628.72;5057058;28;20036;-43
2022/09/10 21:32:29;;;;;;;6.88;2.45;;;;;;;25.97;59.14;101636.19;5056788;28;20048;-45
2022/09/10 21:34:54;;;;;;;7.07;2.55;;;;;;;25.95;58.94;101629.19;5071570;28;20029;-43
2022/09/10 21:37:19;;;;;;;3.95;2.58;;;;;;;25.92;59.12;101632.19;5056835;28;20047;-45
2022/09/10 21:39:45;;;;;;;6.20;2.70;;;;;;;25.89;59.25;101629.78;5055290;28;20067;-43
2022/09/10 21:42:10;;;;;;;3.50;2.60;;;;;;;25.84;59.06;101628.38;5056790;28;20032;-45
2022/09/10 21:44:36;;;;;;;4.40;2.60;;;;;;;25.83;59.22;101634.81;5050450;28;20115;-41
2022/09/10 21:47:01;;;;;;;2.95;2.40;;;;;;;25.81;59.60;101627.81;5071019;28;20511;-46
2022/09/10 21:49:27;;;;;;;3.50;2.33;;;;;;;25.78;59.52;101628.13;5054442;28;20469;-43
2022/09/10 21:51:52;;;;;;;4.50;2.42;;;;;;;25.77;59.66;101637.25;5057217;28;20041;-45
2022/09/10 21:54:20;;;;;;;4.45;2.80;;;;;;;25.77;59.78;101639.97;5060198;28;20039;-42
2022/09/10 21:56:47;;;;;;;3.00;2.35;;;;;;;25.74;59.07;101643.81;5076101;27;20062;-45
2022/09/10 21:59:13;;;;;;;3.00;2.30;;;;;;;25.71;59.01;101654.16;5056291;28;20027;-43
2022/09/10 22:01:40;;;;;;;3.38;2.33;;;;;;;25.67;59.45;101646.28;5059706;28;20098;-45
2022/09/10 22:04:06;;;;;;;4.15;2.40;;;;;;;25.65;58.94;101642.00;5060652;28;20300;-43
2022/09/10 22:06:32;;;;;;;3.47;2.20;;;;;;;25.64;58.76;101651.16;5060022;28;20439;-43
2022/09/10 22:09:05;;;;;;;4.32;2.47;;;;;;;25.63;58.64;101655.72;5060775;28;20648;-43
2022/09/10 22:11:40;;;;;;;4.45;2.35;;;;;;;25.61;58.81;101659.59;5060344;28;20628;-45
2022/09/10 22:14:17;;;;;;;3.83;2.58;;;;;;;25.59;59.03;101659.75;5060393;28;20297;-41
2022/09/10 22:16:44;;;;;;;3.58;2.35;;;;;;;25.59;58.94;101665.16;5060644;28;20032;-43
2022/09/10 22:19:18;;;;;;;3.88;2.55;;;;;;;25.57;59.34;101664.44;5058662;28;20028;-44
2022/09/10 22:21:44;;;;;;;6.28;2.42;;;;;;;25.57;58.73;101666.31;5058017;28;20031;-45
2022/09/10 22:24:12;;;;;;;3.75;2.55;;;;;;;25.54;59.11;101672.03;5040126;28;20043;-43
2022/09/10 22:26:42;;;;;;;4.40;2.38;;;;;;;25.51;59.37;101673.16;5059346;28;20115;-42
2022/09/10 22:29:08;;;;;;;3.15;2.50;;;;;;;25.51;59.10;101678.59;5059839;28;20039;-45
2022/09/10 22:31:35;;;;;;;4.70;2.50;;;;;;;25.49;58.92;101678.75;5060245;28;20048;-42
2022/09/10 22:34:06;;;;;;;3.50;2.40;;;;;;;25.47;59.28;101675.31;5059139;28;20043;-41
2022/09/10 22:36:34;;;;;;;3.83;2.30;;;;;;;25.45;59.34;101676.47;5075111;27;20441;-42
2022/09/10 22:39:02;;;;;;;3.85;2.65;;;;;;;25.43;59.54;101679.34;5059198;28;20033;-43
2022/09/10 22:41:30;;;;;;;4.18;2.70;;;;;;;25.43;58.79;101684.75;5059515;28;20033;-41
2022/09/10 22:43:56;;;;;;;3.17;2.33;;;;;;;25.43;58.97;101686.63;5059562;28;20690;-42
2022/09/10 22:46:22;;;;;;;3.58;2.47;;;;;;;25.41;58.88;101691.31;5060009;28;20098;-42
2022/09/10 22:48:47;;;;;;;3.47;2.60;;;;;;;25.38;59.14;101687.03;5054894;28;20485;-42
2022/09/10 22:51:16;;;;;;;4.57;2.60;;;;;;;25.38;59.12;101692.47;5040011;28;20028;-43
2022/09/10 22:53:43;;;;;;;3.15;2.42;;;;;;;25.37;58.91;101684.50;5058748;28;20094;-45
2022/09/10 22:56:10;;;;;;;3.03;2.25;;;;;;;25.36;59.01;101689.06;5060469;28;20036;-43
2022/09/10 22:58:36;;;;;;;3.72;2.50;;;;;;;25.33;59.24;101690.19;5059075;28;20036;-45
2022/09/10 23:01:13;;;;;;;3.88;2.60;;;;;;;25.32;59.13;101683.03;5058877;28;20384;-42
2022/09/10 23:03:40;;;;;;;3.53;2.60;;;;;;;25.31;58.94;101680.47;5059350;28;20471;-43
2022/09/10 23:06:07;;;;;;;3.70;2.70;;;;;;;25.28;59.14;101681.63;5058990;28;20088;-42
2022/09/10 23:08:34;;;;;;;3.83;2.70;;;;;;;25.27;59.47;101690.75;5058995;28;20114;-42
2022/09/10 23:11:29;;;;;;;3.95;2.50;;;;;;;25.28;59.41;101683.47;5059389;28;20032;-44
2022/09/10 23:13:58;;;;;;;4.18;2.72;;;;;;;25.26;59.46;101693.63;5057032;28;20059;-44
2022/09/10 23:16:29;;;;;;;3.33;2.50;;;;;;;25.23;59.04;101694.75;5059148;28;20020;-42
2022/09/10 23:18:57;;;;;;;4.03;2.80;;;;;;;25.22;59.19;101697.59;5057874;28;20330;-42
2022/09/10 23:21:24;;;;;;;4.03;2.60;;;;;;;25.21;59.07;101707.59;5059609;28;20101;-43
2022/09/10 23:23:55;;;;;;;3.03;2.35;;;;;;;25.18;59.14;101703.31;5042895;28;20140;-42
2022/09/10 23:26:21;;;;;;;3.17;2.50;;;;;;;25.17;58.90;101720.56;5057907;28;20029;-43
2022/09/10 23:28:47;;;;;;;3.05;2.50;;;;;;;25.18;59.20;101716.03;5059050;28;20039;-42
2022/09/10 23:31:19;;;;;;;4.18;2.55;;;;;;;25.18;59.02;101725.00;5058802;28;20048;-43
2022/09/10 23:33:50;;;;;;;2.83;2.55;;;;;;;25.15;59.42;101724.44;5058604;28;20024;-42
2022/09/10 23:36:16;;;;;;;3.65;2.55;;;;;;;25.12;59.13;101722.84;5058668;28;20059;-43
2022/09/10 23:38:42;;;;;;;3.05;2.60;;;;;;;25.11;59.09;101720.28;5058935;28;20512;-42
2022/09/10 23:41:10;;;;;;;3.13;2.45;;;;;;;25.10;58.81;101722.13;5072095;27;20471;-44
2022/09/10 23:43:36;;;;;;;3.33;2.42;;;;;;;25.09;59.36;101725.00;5040428;28;20065;-43
2022/09/10 23:46:01;;;;;;;3.33;2.60;;;;;;;25.06;59.37;101725.28;5058606;28;20143;-42
2022/09/10 23:48:28;;;;;;;3.70;2.67;;;;;;;25.06;59.16;101734.25;5057825;28;20400;-43
2022/09/10 23:50:54;;;;;;;3.47;2.45;;;;;;;25.06;59.39;101741.56;5058246;28;20467;-46
2022/09/10 23:53:20;;;;;;;3.28;2.35;;;;;;;25.06;59.17;101738.84;5057197;28;20039;-43
2022/09/10 23:55:47;;;;;;;3.35;2.65;;;;;;;25.03;59.25;101737.28;5059267;28;20032;-42
2022/09/10 23:58:13;;;;;;;4.15;2.50;;;;;;;25.00;59.38;101743.81;5058294;28;20621;-41
